Terminal Aerodrome Forecast
Issued by NWS

Current Version | Previous Version | Text Only | Print | Product List | Glossary Off
Versions: 1 2 3 4 5 6 7 8 9 10 11 12 13 14 15 16 17 18 19 20 21

000
FTUS41 KPBZ 011720
TAFHLG
TAF
KHLG 011720Z 0118/0218 25005KT P6SM BKN027
     FM012000 24007KT P6SM VCTS BKN035CB
     FM020500 VRB03KT 4SM -SHRA BR OVC025
     FM020700 VRB03KT 3SM -SHRA OVC007
     FM021400 33005KT P6SM OVC015=

USA.gov is the U.S. government's official web portal to all federal, state and local government web resources and services.